sensor_id;sensor_type;location;lat;lon;timestamp;pressure;altitude;pressure_sealevel;temperature;humidity
25130;BME280;13308;50.860;13.664;2023-04-25T06:14:13;95883.47;;;8.18;100.00
25130;BME280;13308;50.860;13.664;2023-04-25T06:16:45;95879.91;;;8.21;98.47
25130;BME280;13308;50.860;13.664;2023-04-25T06:19:10;95889.38;;;8.36;98.74
25130;BME280;13308;50.860;13.664;2023-04-25T06:21:35;95885.19;;;8.47;98.97
25130;BME280;13308;50.860;13.664;2023-04-25T06:24:00;95885.38;;;8.56;98.39
25130;BME280;13308;50.860;13.664;2023-04-25T06:26:27;95879.97;;;8.68;98.24
25130;BME280;13308;50.860;13.664;2023-04-25T06:28:52;95881.09;;;8.87;95.63
25130;BME280;13308;50.860;13.664;2023-04-25T06:31:18;95876.63;;;8.77;93.48
25130;BME280;13308;50.860;13.664;2023-04-25T06:33:45;95878.00;;;9.17;91.85
25130;BME280;13308;50.860;13.664;2023-04-25T06:36:10;95887.75;;;9.50;88.68
25130;BME280;13308;50.860;13.664;2023-04-25T06:38:37;95893.47;;;9.55;88.55
25130;BME280;13308;50.860;13.664;2023-04-25T06:41:02;95893.50;;;9.39;88.93
25130;BME280;13308;50.860;13.664;2023-04-25T06:43:33;95897.00;;;9.11;84.22
25130;BME280;13308;50.860;13.664;2023-04-25T06:46:12;95885.59;;;8.97;87.64
25130;BME280;13308;50.860;13.664;2023-04-25T06:48:42;95891.69;;;9.04;87.50
25130;BME280;13308;50.860;13.664;2023-04-25T06:51:08;95897.56;;;9.19;87.86
25130;BME280;13308;50.860;13.664;2023-04-25T06:53:35;95895.09;;;9.24;87.17
25130;BME280;13308;50.860;13.664;2023-04-25T06:56:03;95900.41;;;9.15;85.76
25130;BME280;13308;50.860;13.664;2023-04-25T06:58:39;95890.63;;;9.14;86.06
25130;BME280;13308;50.860;13.664;2023-04-25T07:01:34;95892.16;;;9.15;86.79
25130;BME280;13308;50.860;13.664;2023-04-25T07:04:03;95896.81;;;9.18;86.03
25130;BME280;13308;50.860;13.664;2023-04-25T07:06:31;95896.81;;;8.86;84.14
25130;BME280;13308;50.860;13.664;2023-04-25T07:08:56;95895.50;;;9.39;84.17
25130;BME280;13308;50.860;13.664;2023-04-25T07:11:22;95903.91;;;9.48;81.78
25130;BME280;13308;50.860;13.664;2023-04-25T07:13:48;95905.53;;;9.45;81.69
25130;BME280;13308;50.860;13.664;2023-04-25T07:16:13;95911.13;;;9.58;82.79
25130;BME280;13308;50.860;13.664;2023-04-25T07:18:39;95908.31;;;9.74;82.69
25130;BME280;13308;50.860;13.664;2023-04-25T07:21:05;95906.25;;;10.06;83.01
25130;BME280;13308;50.860;13.664;2023-04-25T07:23:32;95910.28;;;10.30;80.34
25130;BME280;13308;50.860;13.664;2023-04-25T07:26:01;95914.56;;;11.31;76.31
25130;BME280;13308;50.860;13.664;2023-04-25T07:28:28;95915.47;;;12.39;71.27
25130;BME280;13308;50.860;13.664;2023-04-25T07:30:53;95928.19;;;13.28;66.22
25130;BME280;13308;50.860;13.664;2023-04-25T07:33:18;95928.63;;;13.93;62.65
25130;BME280;13308;50.860;13.664;2023-04-25T07:35:45;95925.38;;;13.10;61.61
25130;BME280;13308;50.860;13.664;2023-04-25T07:38:10;95933.44;;;13.44;62.06
25130;BME280;13308;50.860;13.664;2023-04-25T07:40:36;95926.72;;;13.54;58.67
25130;BME280;13308;50.860;13.664;2023-04-25T07:43:05;95929.53;;;12.84;60.38
25130;BME280;13308;50.860;13.664;2023-04-25T07:45:53;95935.59;;;11.97;60.26
25130;BME280;13308;50.860;13.664;2023-04-25T07:48:19;95934.72;;;11.53;63.30
25130;BME280;13308;50.860;13.664;2023-04-25T07:50:45;95928.91;;;12.28;62.08
25130;BME280;13308;50.860;13.664;2023-04-25T07:53:11;95923.44;;;12.37;63.11
25130;BME280;13308;50.860;13.664;2023-04-25T07:55:43;95922.31;;;11.70;63.61
25130;BME280;13308;50.860;13.664;2023-04-25T07:58:14;95925.63;;;11.06;66.27
25130;BME280;13308;50.860;13.664;2023-04-25T08:00:42;95918.25;;;11.16;69.91
25130;BME280;13308;50.860;13.664;2023-04-25T08:03:26;95925.78;;;11.62;64.07
25130;BME280;13308;50.860;13.664;2023-04-25T08:05:53;95932.78;;;13.22;63.09
25130;BME280;13308;50.860;13.664;2023-04-25T08:08:18;95932.16;;;12.57;60.76
25130;BME280;13308;50.860;13.664;2023-04-25T08:10:44;95942.56;;;12.23;61.40
25130;BME280;13308;50.860;13.664;2023-04-25T08:13:11;95944.63;;;11.76;61.95
25130;BME280;13308;50.860;13.664;2023-04-25T08:15:37;95950.16;;;10.92;62.24
25130;BME280;13308;50.860;13.664;2023-04-25T08:18:02;95935.03;;;10.71;64.85
25130;BME280;13308;50.860;13.664;2023-04-25T08:20:29;95941.63;;;10.61;64.34
25130;BME280;13308;50.860;13.664;2023-04-25T08:22:56;95940.31;;;10.53;69.03
25130;BME280;13308;50.860;13.664;2023-04-25T08:25:31;95943.94;;;10.75;66.38
25130;BME280;13308;50.860;13.664;2023-04-25T08:27:57;95943.34;;;10.30;68.18
25130;BME280;13308;50.860;13.664;2023-04-25T08:30:24;95940.56;;;10.18;68.35
25130;BME280;13308;50.860;13.664;2023-04-25T08:32:50;95943.47;;;10.39;69.16
25130;BME280;13308;50.860;13.664;2023-04-25T08:35:43;95948.22;;;10.39;69.75
25130;BME280;13308;50.860;13.664;2023-04-25T08:38:09;95953.16;;;10.31;69.25
25130;BME280;13308;50.860;13.664;2023-04-25T08:40:37;95959.06;;;10.17;68.36
25130;BME280;13308;50.860;13.664;2023-04-25T08:43:07;95957.56;;;10.00;68.70
25130;BME280;13308;50.860;13.664;2023-04-25T08:45:40;95967.41;;;9.85;69.49
25130;BME280;13308;50.860;13.664;2023-04-25T08:48:14;95967.91;;;9.80;71.70
25130;BME280;13308;50.860;13.664;2023-04-25T08:50:52;95970.22;;;9.37;74.09
25130;BME280;13308;50.860;13.664;2023-04-25T08:53:38;95971.91;;;9.63;73.30
25130;BME280;13308;50.860;13.664;2023-04-25T08:56:05;95964.09;;;9.62;74.21
25130;BME280;13308;50.860;13.664;2023-04-25T08:58:35;95964.66;;;9.85;73.10
25130;BME280;13308;50.860;13.664;2023-04-25T09:01:01;95965.88;;;10.13;72.34
25130;BME280;13308;50.860;13.664;2023-04-25T09:03:31;95966.34;;;10.24;71.35
25130;BME280;13308;50.860;13.664;2023-04-25T09:05:57;95972.66;;;10.24;71.15
25130;BME280;13308;50.860;13.664;2023-04-25T09:08:23;95973.03;;;10.10;72.28
25130;BME280;13308;50.860;13.664;2023-04-25T09:10:48;95982.84;;;10.11;70.41
25130;BME280;13308;50.860;13.664;2023-04-25T09:13:14;95984.81;;;9.82;70.46
25130;BME280;13308;50.860;13.664;2023-04-25T09:16:02;95983.41;;;9.74;72.85
25130;BME280;13308;50.860;13.664;2023-04-25T09:18:38;95989.81;;;9.71;73.51
25130;BME280;13308;50.860;13.664;2023-04-25T09:21:11;95991.88;;;9.51;75.05
25130;BME280;13308;50.860;13.664;2023-04-25T09:23:48;95995.50;;;9.64;76.97
25130;BME280;13308;50.860;13.664;2023-04-25T09:26:20;95995.41;;;9.52;76.49
25130;BME280;13308;50.860;13.664;2023-04-25T09:28:47;96003.41;;;9.62;75.18
25130;BME280;13308;50.860;13.664;2023-04-25T09:31:24;96002.97;;;9.64;74.88
25130;BME280;13308;50.860;13.664;2023-04-25T09:33:58;96003.16;;;9.73;74.54
25130;BME280;13308;50.860;13.664;2023-04-25T09:36:26;96005.66;;;9.96;75.35
25130;BME280;13308;50.860;13.664;2023-04-25T09:39:18;96007.25;;;9.97;73.11
25130;BME280;13308;50.860;13.664;2023-04-25T09:41:54;96009.81;;;9.88;75.08
25130;BME280;13308;50.860;13.664;2023-04-25T09:44:23;96018.31;;;9.93;76.06
25130;BME280;13308;50.860;13.664;2023-04-25T09:46:50;96013.25;;;10.08;75.04
25130;BME280;13308;50.860;13.664;2023-04-25T09:49:20;96011.22;;;10.24;73.50
25130;BME280;13308;50.860;13.664;2023-04-25T09:52:06;96013.63;;;10.22;73.58
25130;BME280;13308;50.860;13.664;2023-04-25T09:54:38;96017.66;;;10.34;73.44
25130;BME280;13308;50.860;13.664;2023-04-25T09:57:14;96017.13;;;10.39;70.67
25130;BME280;13308;50.860;13.664;2023-04-25T10:02:14;96016.91;;;10.17;72.71
25130;BME280;13308;50.860;13.664;2023-04-25T10:04:41;96029.69;;;10.11;74.49
25130;BME280;13308;50.860;13.664;2023-04-25T10:07:22;96027.59;;;9.99;75.42
25130;BME280;13308;50.860;13.664;2023-04-25T10:10:02;96030.59;;;9.76;74.09
25130;BME280;13308;50.860;13.664;2023-04-25T10:12:29;96032.56;;;9.60;73.96
25130;BME280;13308;50.860;13.664;2023-04-25T10:14:57;96039.56;;;9.64;75.97
25130;BME280;13308;50.860;13.664;2023-04-25T10:17:23;96045.53;;;9.75;75.43
25130;BME280;13308;50.860;13.664;2023-04-25T10:19:48;96039.88;;;9.50;74.87
25130;BME280;13308;50.860;13.664;2023-04-25T10:22:20;96042.63;;;9.66;75.15
25130;BME280;13308;50.860;13.664;2023-04-25T10:24:49;96036.44;;;9.62;76.04
25130;BME280;13308;50.860;13.664;2023-04-25T10:27:15;96048.50;;;9.52;77.59
25130;BME280;13308;50.860;13.664;2023-04-25T10:29:40;96043.34;;;9.70;77.62
25130;BME280;13308;50.860;13.664;2023-04-25T10:32:07;96044.88;;;9.71;78.15
25130;BME280;13308;50.860;13.664;2023-04-25T10:34:40;96052.69;;;9.41;80.10
25130;BME280;13308;50.860;13.664;2023-04-25T10:37:09;96046.00;;;8.90;82.28
25130;BME280;13308;50.860;13.664;2023-04-25T10:39:34;96048.09;;;9.02;84.05
25130;BME280;13308;50.860;13.664;2023-04-25T10:42:02;96049.09;;;8.92;84.48
25130;BME280;13308;50.860;13.664;2023-04-25T10:44:28;96054.72;;;8.69;85.34
25130;BME280;13308;50.860;13.664;2023-04-25T10:47:01;96046.38;;;9.08;83.96
25130;BME280;13308;50.860;13.664;2023-04-25T10:49:31;96054.22;;;9.42;83.18
25130;BME280;13308;50.860;13.664;2023-04-25T10:52:17;96044.53;;;9.53;82.87
25130;BME280;13308;50.860;13.664;2023-04-25T10:54:55;96045.28;;;9.86;81.08
25130;BME280;13308;50.860;13.664;2023-04-25T10:57:31;96047.72;;;10.28;78.21
25130;BME280;13308;50.860;13.664;2023-04-25T11:00:00;96046.34;;;10.36;78.40
25130;BME280;13308;50.860;13.664;2023-04-25T11:02:31;96045.94;;;10.50;77.93
25130;BME280;13308;50.860;13.664;2023-04-25T11:04:57;96054.88;;;10.54;76.33
25130;BME280;13308;50.860;13.664;2023-04-25T11:07:34;96053.94;;;10.16;75.05
25130;BME280;13308;50.860;13.664;2023-04-25T11:10:04;96053.59;;;9.98;76.17
25130;BME280;13308;50.860;13.664;2023-04-25T11:12:31;96060.84;;;9.92;77.17
25130;BME280;13308;50.860;13.664;2023-04-25T11:15:04;96058.97;;;9.89;77.70
25130;BME280;13308;50.860;13.664;2023-04-25T11:17:31;96062.25;;;9.84;78.14
25130;BME280;13308;50.860;13.664;2023-04-25T11:19:56;96069.66;;;9.55;79.70
25130;BME280;13308;50.860;13.664;2023-04-25T11:22:22;96079.63;;;9.65;77.78
25130;BME280;13308;50.860;13.664;2023-04-25T11:24:48;96078.59;;;9.43;79.41
25130;BME280;13308;50.860;13.664;2023-04-25T11:27:13;96068.66;;;9.30;79.79
25130;BME280;13308;50.860;13.664;2023-04-25T11:29:40;96084.25;;;9.01;81.56
25130;BME280;13308;50.860;13.664;2023-04-25T11:32:06;96077.28;;;8.96;84.60
25130;BME280;13308;50.860;13.664;2023-04-25T11:34:33;96080.84;;;8.77;87.00
25130;BME280;13308;50.860;13.664;2023-04-25T11:36:59;96084.78;;;8.76;88.89
25130;BME280;13308;50.860;13.664;2023-04-25T11:39:26;96092.81;;;8.67;90.86
25130;BME280;13308;50.860;13.664;2023-04-25T11:41:52;96085.63;;;8.73;91.03
25130;BME280;13308;50.860;13.664;2023-04-25T11:44:18;96091.28;;;8.66;90.94
25130;BME280;13308;50.860;13.664;2023-04-25T11:46:44;96092.75;;;8.71;93.10
25130;BME280;13308;50.860;13.664;2023-04-25T11:49:10;96100.91;;;8.74;91.21
25130;BME280;13308;50.860;13.664;2023-04-25T11:51:43;96099.75;;;8.75;91.33
25130;BME280;13308;50.860;13.664;2023-04-25T11:54:10;96103.75;;;8.71;94.26
25130;BME280;13308;50.860;13.664;2023-04-25T11:56:35;96110.03;;;8.71;95.55
25130;BME280;13308;50.860;13.664;2023-04-25T11:59:03;96110.75;;;8.75;94.56
25130;BME280;13308;50.860;13.664;2023-04-25T12:01:30;96113.59;;;8.88;92.22
25130;BME280;13308;50.860;13.664;2023-04-25T12:03:56;96116.09;;;8.82;90.29
25130;BME280;13308;50.860;13.664;2023-04-25T12:06:26;96112.69;;;8.94;88.52
25130;BME280;13308;50.860;13.664;2023-04-25T12:09:03;96119.03;;;8.91;90.15
25130;BME280;13308;50.860;13.664;2023-04-25T12:11:32;96114.38;;;9.08;88.63
25130;BME280;13308;50.860;13.664;2023-04-25T12:14:03;96116.41;;;9.23;85.46
25130;BME280;13308;50.860;13.664;2023-04-25T12:16:39;96114.09;;;9.02;85.62
25130;BME280;13308;50.860;13.664;2023-04-25T12:19:05;96127.56;;;8.77;86.57
25130;BME280;13308;50.860;13.664;2023-04-25T12:21:32;96123.28;;;8.76;86.72
25130;BME280;13308;50.860;13.664;2023-04-25T12:24:21;96128.78;;;8.76;86.57
25130;BME280;13308;50.860;13.664;2023-04-25T12:26:50;96134.38;;;9.08;86.17
25130;BME280;13308;50.860;13.664;2023-04-25T12:29:22;96120.59;;;9.79;83.55
25130;BME280;13308;50.860;13.664;2023-04-25T12:31:48;96120.41;;;10.34;80.41
25130;BME280;13308;50.860;13.664;2023-04-25T12:34:14;96127.50;;;10.76;75.93
25130;BME280;13308;50.860;13.664;2023-04-25T12:36:40;96127.41;;;11.21;74.82
25130;BME280;13308;50.860;13.664;2023-04-25T12:39:05;96116.63;;;11.26;73.22
25130;BME280;13308;50.860;13.664;2023-04-25T12:41:31;96125.56;;;11.30;71.67
25130;BME280;13308;50.860;13.664;2023-04-25T12:43:57;96125.75;;;11.23;74.71
25130;BME280;13308;50.860;13.664;2023-04-25T12:46:22;96122.53;;;11.00;73.37
25130;BME280;13308;50.860;13.664;2023-04-25T12:48:50;96123.88;;;11.08;70.83
25130;BME280;13308;50.860;13.664;2023-04-25T12:51:16;96135.03;;;10.76;73.18
25130;BME280;13308;50.860;13.664;2023-04-25T12:53:41;96137.69;;;10.51;74.12
25130;BME280;13308;50.860;13.664;2023-04-25T12:56:07;96134.25;;;10.31;73.59
25130;BME280;13308;50.860;13.664;2023-04-25T12:58:33;96134.88;;;9.90;75.93
25130;BME280;13308;50.860;13.664;2023-04-25T13:00:58;96141.59;;;10.05;76.14
25130;BME280;13308;50.860;13.664;2023-04-25T13:03:24;96141.59;;;9.89;77.04
25130;BME280;13308;50.860;13.664;2023-04-25T13:05:50;96133.16;;;9.80;77.39
25130;BME280;13308;50.860;13.664;2023-04-25T13:08:17;96133.34;;;9.89;76.60
25130;BME280;13308;50.860;13.664;2023-04-25T13:10:43;96132.53;;;9.89;78.02
25130;BME280;13308;50.860;13.664;2023-04-25T13:13:08;96142.13;;;10.00;76.80
25130;BME280;13308;50.860;13.664;2023-04-25T13:15:33;96153.13;;;9.84;77.47
25130;BME280;13308;50.860;13.664;2023-04-25T13:17:59;96149.00;;;9.76;77.65
25130;BME280;13308;50.860;13.664;2023-04-25T13:20:24;96146.47;;;9.66;78.10
25130;BME280;13308;50.860;13.664;2023-04-25T13:22:49;96150.06;;;9.47;78.75
25130;BME280;13308;50.860;13.664;2023-04-25T13:25:15;96151.38;;;9.23;80.15
25130;BME280;13308;50.860;13.664;2023-04-25T13:27:41;96152.44;;;9.09;81.28
25130;BME280;13308;50.860;13.664;2023-04-25T13:30:09;96158.88;;;8.83;82.12
25130;BME280;13308;50.860;13.664;2023-04-25T13:32:35;96157.09;;;8.73;82.06
25130;BME280;13308;50.860;13.664;2023-04-25T13:35:05;96159.50;;;8.71;82.15
25130;BME280;13308;50.860;13.664;2023-04-25T13:37:31;96171.13;;;8.59;81.76
25130;BME280;13308;50.860;13.664;2023-04-25T13:39:59;96162.78;;;8.43;81.98
25130;BME280;13308;50.860;13.664;2023-04-25T13:42:25;96166.97;;;8.52;82.06
25130;BME280;13308;50.860;13.664;2023-04-25T13:44:50;96168.06;;;8.35;83.00
25130;BME280;13308;50.860;13.664;2023-04-25T13:47:16;96163.97;;;8.43;84.93
25130;BME280;13308;50.860;13.664;2023-04-25T13:49:41;96165.53;;;8.43;84.42
25130;BME280;13308;50.860;13.664;2023-04-25T13:52:06;96177.97;;;8.52;84.78
25130;BME280;13308;50.860;13.664;2023-04-25T13:54:32;96178.78;;;8.48;83.99
25130;BME280;13308;50.860;13.664;2023-04-25T13:56:58;96174.00;;;8.52;84.46
25130;BME280;13308;50.860;13.664;2023-04-25T13:59:24;96185.19;;;8.42;86.54
25130;BME280;13308;50.860;13.664;2023-04-25T14:01:51;96180.47;;;8.43;86.33
25130;BME280;13308;50.860;13.664;2023-04-25T14:04:16;96182.88;;;8.41;87.21
25130;BME280;13308;50.860;13.664;2023-04-25T14:06:41;96187.28;;;8.35;86.25
25130;BME280;13308;50.860;13.664;2023-04-25T14:09:07;96186.63;;;8.50;85.42
25130;BME280;13308;50.860;13.664;2023-04-25T14:11:36;96193.84;;;8.41;84.73
25130;BME280;13308;50.860;13.664;2023-04-25T14:14:01;96192.25;;;8.43;84.79
25130;BME280;13308;50.860;13.664;2023-04-25T14:16:27;96189.78;;;8.48;85.04
25130;BME280;13308;50.860;13.664;2023-04-25T14:18:52;96187.03;;;8.48;86.10
25130;BME280;13308;50.860;13.664;2023-04-25T14:21:17;96189.50;;;8.62;86.48
25130;BME280;13308;50.860;13.664;2023-04-25T14:23:42;96192.88;;;8.50;86.43
25130;BME280;13308;50.860;13.664;2023-04-25T14:26:08;96192.03;;;8.53;85.20
25130;BME280;13308;50.860;13.664;2023-04-25T14:28:37;96193.66;;;8.51;86.31
25130;BME280;13308;50.860;13.664;2023-04-25T14:31:02;96200.78;;;8.26;87.94
25130;BME280;13308;50.860;13.664;2023-04-25T14:33:27;96202.91;;;8.38;88.30
25130;BME280;13308;50.860;13.664;2023-04-25T14:35:53;96208.19;;;8.29;87.29
25130;BME280;13308;50.860;13.664;2023-04-25T14:38:18;96204.88;;;8.14;85.09
25130;BME280;13308;50.860;13.664;2023-04-25T14:40:48;96207.78;;;8.04;86.05
25130;BME280;13308;50.860;13.664;2023-04-25T14:43:13;96209.19;;;7.89;85.89
25130;BME280;13308;50.860;13.664;2023-04-25T14:45:39;96211.81;;;7.96;88.21
25130;BME280;13308;50.860;13.664;2023-04-25T14:48:04;96204.66;;;8.02;91.19
25130;BME280;13308;50.860;13.664;2023-04-25T14:50:29;96209.41;;;8.28;90.15
25130;BME280;13308;50.860;13.664;2023-04-25T14:52:55;96203.56;;;9.46;87.43
25130;BME280;13308;50.860;13.664;2023-04-25T14:55:24;96207.88;;;10.62;82.37
25130;BME280;13308;50.860;13.664;2023-04-25T14:57:49;96208.13;;;10.68;78.70
25130;BME280;13308;50.860;13.664;2023-04-25T15:00:14;96209.47;;;10.47;78.70
25130;BME280;13308;50.860;13.664;2023-04-25T15:02:41;96209.28;;;10.54;79.13
25130;BME280;13308;50.860;13.664;2023-04-25T15:05:07;96199.97;;;10.00;80.74
25130;BME280;13308;50.860;13.664;2023-04-25T15:07:33;96200.28;;;9.70;82.02
25130;BME280;13308;50.860;13.664;2023-04-25T15:10:00;96206.63;;;9.67;82.19
25130;BME280;13308;50.860;13.664;2023-04-25T15:12:26;96205.16;;;9.63;81.93
25130;BME280;13308;50.860;13.664;2023-04-25T15:14:53;96210.50;;;9.34;81.56
25130;BME280;13308;50.860;13.664;2023-04-25T15:17:19;96209.72;;;9.14;82.41
25130;BME280;13308;50.860;13.664;2023-04-25T15:19:44;96208.56;;;8.92;83.64
25130;BME280;13308;50.860;13.664;2023-04-25T15:22:09;96205.53;;;8.67;83.89
25130;BME280;13308;50.860;13.664;2023-04-25T15:24:35;96214.50;;;8.71;83.82
25130;BME280;13308;50.860;13.664;2023-04-25T15:27:00;96217.97;;;8.52;87.48
25130;BME280;13308;50.860;13.664;2023-04-25T15:29:26;96225.34;;;8.36;88.16
25130;BME280;13308;50.860;13.664;2023-04-25T15:31:52;96218.94;;;8.20;90.24
25130;BME280;13308;50.860;13.664;2023-04-25T15:34:17;96227.59;;;8.14;91.40
25130;BME280;13308;50.860;13.664;2023-04-25T15:36:43;96234.53;;;8.00;91.96
25130;BME280;13308;50.860;13.664;2023-04-25T15:39:08;96238.47;;;7.99;90.84
25130;BME280;13308;50.860;13.664;2023-04-25T15:41:33;96241.50;;;7.78;88.22
25130;BME280;13308;50.860;13.664;2023-04-25T15:43:59;96239.97;;;7.77;86.24
25130;BME280;13308;50.860;13.664;2023-04-25T15:46:25;96251.56;;;7.61;81.54
25130;BME280;13308;50.860;13.664;2023-04-25T15:48:51;96246.56;;;7.53;81.50
25130;BME280;13308;50.860;13.664;2023-04-25T15:51:16;96256.44;;;7.47;80.25
25130;BME280;13308;50.860;13.664;2023-04-25T15:53:42;96253.41;;;7.38;79.70
25130;BME280;13308;50.860;13.664;2023-04-25T15:56:07;96262.47;;;7.35;82.42
25130;BME280;13308;50.860;13.664;2023-04-25T15:58:32;96253.50;;;7.31;78.65
25130;BME280;13308;50.860;13.664;2023-04-25T16:00:58;96258.63;;;7.29;80.41
25130;BME280;13308;50.860;13.664;2023-04-25T16:03:23;96249.66;;;7.25;78.99
25130;BME280;13308;50.860;13.664;2023-04-25T16:05:49;96263.38;;;7.25;79.56
25130;BME280;13308;50.860;13.664;2023-04-25T16:08:14;96258.31;;;7.23;78.71
25130;BME280;13308;50.860;13.664;2023-04-25T16:10:40;96256.34;;;7.24;79.57
25130;BME280;13308;50.860;13.664;2023-04-25T16:13:05;96258.34;;;7.20;80.46
25130;BME280;13308;50.860;13.664;2023-04-25T16:15:30;96257.94;;;7.21;78.38
25130;BME280;13308;50.860;13.664;2023-04-25T16:17:56;96257.13;;;7.24;80.51
25130;BME280;13308;50.860;13.664;2023-04-25T16:20:22;96253.56;;;7.27;79.88
25130;BME280;13308;50.860;13.664;2023-04-25T16:22:47;96261.28;;;7.36;77.72
25130;BME280;13308;50.860;13.664;2023-04-25T16:25:12;96258.88;;;7.41;78.39
25130;BME280;13308;50.860;13.664;2023-04-25T16:27:38;96259.66;;;7.42;77.63
25130;BME280;13308;50.860;13.664;2023-04-25T16:30:05;96271.56;;;7.58;76.46
25130;BME280;13308;50.860;13.664;2023-04-25T16:32:32;96263.22;;;7.69;77.45
25130;BME280;13308;50.860;13.664;2023-04-25T16:34:57;96268.34;;;7.93;76.21
25130;BME280;13308;50.860;13.664;2023-04-25T16:37:23;96279.72;;;8.22;74.06
25130;BME280;13308;50.860;13.664;2023-04-25T16:39:48;96262.16;;;8.38;73.87
25130;BME280;13308;50.860;13.664;2023-04-25T16:42:14;96273.94;;;8.39;70.90
25130;BME280;13308;50.860;13.664;2023-04-25T16:44:39;96268.63;;;8.29;70.81
25130;BME280;13308;50.860;13.664;2023-04-25T16:47:05;96269.53;;;8.18;69.99
25130;BME280;13308;50.860;13.664;2023-04-25T16:49:31;96280.09;;;8.24;69.63
25130;BME280;13308;50.860;13.664;2023-04-25T16:51:56;96278.25;;;8.13;72.11
25130;BME280;13308;50.860;13.664;2023-04-25T16:54:21;96279.53;;;8.06;70.03
25130;BME280;13308;50.860;13.664;2023-04-25T16:56:49;96287.44;;;8.04;72.71
25130;BME280;13308;50.860;13.664;2023-04-25T16:59:14;96274.16;;;7.99;72.37
25130;BME280;13308;50.860;13.664;2023-04-25T17:01:40;96284.75;;;7.97;74.12
25130;BME280;13308;50.860;13.664;2023-04-25T17:04:05;96288.69;;;7.96;74.00
25130;BME280;13308;50.860;13.664;2023-04-25T17:06:31;96284.41;;;7.95;73.54
25130;BME280;13308;50.860;13.664;2023-04-25T17:08:56;96295.91;;;7.86;72.77
25130;BME280;13308;50.860;13.664;2023-04-25T17:11:22;96297.50;;;7.84;74.53
25130;BME280;13308;50.860;13.664;2023-04-25T17:13:47;96297.59;;;7.77;75.85
25130;BME280;13308;50.860;13.664;2023-04-25T17:16:12;96303.09;;;7.77;72.94
25130;BME280;13308;50.860;13.664;2023-04-25T17:18:42;96311.63;;;7.82;72.79
25130;BME280;13308;50.860;13.664;2023-04-25T17:21:08;96315.72;;;7.71;75.25
25130;BME280;13308;50.860;13.664;2023-04-25T17:23:33;96312.53;;;7.76;73.55
25130;BME280;13308;50.860;13.664;2023-04-25T17:25:59;96316.22;;;7.62;71.29
25130;BME280;13308;50.860;13.664;2023-04-25T17:28:25;96317.41;;;7.61;71.25
25130;BME280;13308;50.860;13.664;2023-04-25T17:30:50;96316.66;;;7.57;68.61
25130;BME280;13308;50.860;13.664;2023-04-25T17:33:15;96314.41;;;7.49;69.81
25130;BME280;13308;50.860;13.664;2023-04-25T17:35:41;96320.34;;;7.44;67.50
25130;BME280;13308;50.860;13.664;2023-04-25T17:38:06;96313.75;;;7.38;66.82
25130;BME280;13308;50.860;13.664;2023-04-25T17:40:31;96316.06;;;7.43;67.01
25130;BME280;13308;50.860;13.664;2023-04-25T17:42:57;96315.38;;;7.35;69.85
25130;BME280;13308;50.860;13.664;2023-04-25T17:45:22;96315.41;;;7.32;70.67
25130;BME280;13308;50.860;13.664;2023-04-25T17:47:48;96322.06;;;7.31;70.68
25130;BME280;13308;50.860;13.664;2023-04-25T17:50:13;96328.84;;;7.23;69.65
25130;BME280;13308;50.860;13.664;2023-04-25T17:52:41;96331.22;;;7.21;69.97
25130;BME280;13308;50.860;13.664;2023-04-25T17:55:07;96334.00;;;7.17;69.38
25130;BME280;13308;50.860;13.664;2023-04-25T17:57:33;96334.00;;;7.14;70.63
25130;BME280;13308;50.860;13.664;2023-04-25T17:59:58;96341.84;;;7.15;70.73
25130;BME280;13308;50.860;13.664;2023-04-25T18:02:24;96340.31;;;7.11;72.38
25130;BME280;13308;50.860;13.664;2023-04-25T18:04:49;96342.31;;;7.07;71.62
25130;BME280;13308;50.860;13.664;2023-04-25T18:07:14;96350.97;;;7.02;72.80
25130;BME280;13308;50.860;13.664;2023-04-25T18:09:40;96348.66;;;7.00;72.69
25130;BME280;13308;50.860;13.664;2023-04-25T18:12:05;96348.66;;;7.00;72.07
25130;BME280;13308;50.860;13.664;2023-04-25T18:14:32;96341.69;;;6.92;73.26
25130;BME280;13308;50.860;13.664;2023-04-25T18:16:59;96353.81;;;6.91;71.57
25130;BME280;13308;50.860;13.664;2023-04-25T18:19:24;96356.19;;;6.89;72.71
25130;BME280;13308;50.860;13.664;2023-04-25T18:21:51;96351.97;;;6.78;73.10
25130;BME280;13308;50.860;13.664;2023-04-25T18:24:19;96349.69;;;6.76;73.19
25130;BME280;13308;50.860;13.664;2023-04-25T18:26:46;96352.81;;;6.75;73.83
25130;BME280;13308;50.860;13.664;2023-04-25T18:29:16;96362.22;;;6.74;74.62
25130;BME280;13308;50.860;13.664;2023-04-25T18:31:42;96352.06;;;6.71;75.05
25130;BME280;13308;50.860;13.664;2023-04-25T18:34:08;96357.19;;;6.65;73.00
25130;BME280;13308;50.860;13.664;2023-04-25T18:40:06;96365.06;;;6.60;73.50
